Time;durP1;ratioP1;P1;durP2;ratioP2;P2;SDS_P1;SDS_P2;PMS_P1;PMS_P2;Temp;Humidity;BMP_temperature;BMP_pressure;BME280_temperature;BME280_humidity;BME280_pressure;Samples;Min_cycle;Max_cycle;Signal;HPM_P1;HPM_P2
2023/12/07 05:04:54;;;;;;;3.40;2.65;;;;;;;4.59;100.00;100394.81;5607147;31;86149;-55
2023/12/07 05:07:57;;;;;;;3.80;3.10;;;;;;;4.59;100.00;100394.81;5592090;31;33437;-55
2023/12/07 05:11:00;;;;;;;2.87;2.22;;;;;;;4.29;100.00;100402.25;5582628;31;33594;-55
2023/12/07 05:14:03;;;;;;;3.53;2.70;;;;;;;4.28;99.22;100412.06;5581132;31;34250;-55
2023/12/07 05:17:06;;;;;;;3.10;2.22;;;;;;;4.37;100.00;100413.31;5572359;32;33715;-55
2023/12/07 05:20:09;;;;;;;2.70;2.20;;;;;;;4.34;100.00;100412.94;5566777;32;33684;-55
2023/12/07 05:23:11;;;;;;;2.42;2.10;;;;;;;4.35;94.01;100411.94;5563920;32;33476;-55
2023/12/07 05:26:14;;;;;;;2.40;2.08;;;;;;;4.28;91.84;100424.53;5563695;32;33656;-55
2023/12/07 05:29:17;;;;;;;2.62;2.00;;;;;;;4.16;93.40;100425.38;5563904;32;33143;-55
2023/12/07 05:32:20;;;;;;;2.33;1.80;;;;;;;4.12;96.56;100426.91;5565426;32;33517;-55
2023/12/07 05:35:23;;;;;;;2.35;1.90;;;;;;;4.10;95.78;100428.97;5583630;32;33713;-56
2023/12/07 05:38:25;;;;;;;2.40;1.87;;;;;;;4.07;97.92;100431.28;5582986;31;34309;-55
2023/12/07 05:41:28;;;;;;;2.12;1.80;;;;;;;4.19;95.17;100443.47;5578712;31;34056;-55
2023/12/07 05:44:31;;;;;;;2.45;2.22;;;;;;;4.33;93.40;100449.31;5576782;31;33585;-55
2023/12/07 05:47:33;;;;;;;2.10;1.73;;;;;;;4.21;94.17;100446.72;5577627;32;33341;-55
2023/12/07 05:50:39;;;;;;;2.10;1.80;;;;;;;4.33;100.00;100444.00;5569116;31;34354;-55
2023/12/07 05:53:42;;;;;;;2.03;1.80;;;;;;;4.25;96.68;100444.37;5570961;31;33748;-57
2023/12/07 05:56:44;;;;;;;3.72;2.37;;;;;;;4.31;99.20;100453.25;5582983;31;34371;-55
2023/12/07 05:59:47;;;;;;;2.65;2.30;;;;;;;4.22;94.78;100453.63;5583035;31;34311;-55
2023/12/07 06:02:49;;;;;;;2.60;2.20;;;;;;;4.40;100.00;100460.63;5578984;32;33555;-55
2023/12/07 06:05:52;;;;;;;2.10;1.80;;;;;;;4.40;96.39;100459.78;5579438;31;34393;-55
2023/12/07 06:08:54;;;;;;;2.85;2.00;;;;;;;4.35;92.40;100454.41;5577954;31;34214;-55
2023/12/07 06:11:57;;;;;;;3.75;2.15;;;;;;;4.41;91.64;100459.56;5579189;31;33566;-55
2023/12/07 06:14:59;;;;;;;2.90;1.92;;;;;;;4.56;100.00;100459.03;5575095;31;33639;-55
2023/12/07 06:18:05;;;;;;;2.37;1.90;;;;;;;4.59;97.53;100465.72;5560153;32;33517;-55
2023/12/07 06:21:07;;;;;;;3.20;2.28;;;;;;;4.44;94.65;100479.53;5561177;32;33682;-56
2023/12/07 06:24:10;;;;;;;2.78;2.30;;;;;;;4.38;92.53;100477.81;5567346;32;33647;-55
2023/12/07 06:27:12;;;;;;;2.85;2.10;;;;;;;4.38;98.92;100481.25;5567433;32;33568;-55
2023/12/07 06:30:15;;;;;;;7.87;2.72;;;;;;;4.54;100.00;100482.38;5567700;32;33689;-55
2023/12/07 06:33:17;;;;;;;127.30;8.88;;;;;;;4.41;95.36;100480.78;5564528;32;34297;-56
2023/12/07 06:36:24;;;;;;;3.58;2.28;;;;;;;4.57;100.00;100486.38;5564411;32;33714;-55
2023/12/07 06:39:26;;;;;;;;;;;;;;;4.52;99.87;100494.25;5562736;32;33906;-56
2023/12/07 06:42:28;;;;;;;2.92;2.45;;;;;;;4.53;91.86;100501.16;5566229;32;33959;-55
2023/12/07 06:45:30;;;;;;;4.32;2.58;;;;;;;4.38;93.09;100499.03;5568719;32;33684;-55
2023/12/07 06:48:33;;;;;;;3.25;2.60;;;;;;;4.37;94.35;100500.06;5564661;32;33515;-55
2023/12/07 06:51:36;;;;;;;3.45;3.08;;;;;;;4.38;93.08;100507.00;5551756;32;34344;-55
2023/12/07 06:54:38;;;;;;;4.25;2.60;;;;;;;4.53;100.00;100514.44;5564339;32;33923;-55
2023/12/07 06:57:40;;;;;;;3.85;2.85;;;;;;;4.53;100.00;100520.56;5554625;32;33697;-55
2023/12/07 07:00:43;;;;;;;3.78;2.80;;;;;;;4.55;100.00;100515.81;5553074;32;33736;-56
2023/12/07 07:03:45;;;;;;;4.30;3.10;;;;;;;4.39;96.01;100517.38;5565678;32;34283;-56
2023/12/07 07:06:48;;;;;;;47.17;5.18;;;;;;;4.57;100.00;100523.53;5564734;32;34262;-55
2023/12/07 07:09:50;;;;;;;4.45;3.08;;;;;;;4.54;100.00;100518.72;5566096;32;34271;-55
2023/12/07 07:12:53;;;;;;;4.10;3.40;;;;;;;4.77;100.00;100521.28;5568595;32;33285;-56
2023/12/07 07:15:55;;;;;;;4.30;3.55;;;;;;;4.66;100.00;100517.63;5566283;32;33648;-55
2023/12/07 07:18:58;;;;;;;5.78;4.18;;;;;;;4.55;100.00;100526.44;5566797;32;34271;-55
2023/12/07 07:22:00;;;;;;;6.80;4.22;;;;;;;4.71;100.00;100524.87;5565143;32;34297;-55
2023/12/07 07:25:04;;;;;;;5.85;4.30;;;;;;;4.72;92.55;100523.84;5568373;32;33370;-56
2023/12/07 07:28:07;;;;;;;7.97;5.10;;;;;;;4.48;92.99;100531.09;5566630;32;34219;-55
2023/12/07 07:31:10;;;;;;;5.43;4.22;;;;;;;4.51;92.79;100538.59;5566900;32;33646;-55
2023/12/07 07:34:13;;;;;;;5.45;4.00;;;;;;;4.44;91.87;100533.41;5565881;32;33080;-55
2023/12/07 07:37:15;;;;;;;4.90;4.00;;;;;;;4.44;92.55;100535.28;5566224;32;33636;-55
2023/12/07 07:40:18;;;;;;;6.82;4.40;;;;;;;4.28;91.17;100541.31;5566874;32;34311;-55
2023/12/07 07:43:20;;;;;;;7.80;4.80;;;;;;;4.06;94.04;100544.56;5562834;32;34217;-55
2023/12/07 07:46:24;;;;;;;7.03;4.80;;;;;;;4.15;94.82;100547.66;5565776;32;33551;-56
2023/12/07 07:49:27;;;;;;;7.22;4.82;;;;;;;4.07;95.93;100542.72;5567190;32;33738;-55
2023/12/07 07:52:29;;;;;;;8.55;4.70;;;;;;;4.14;100.00;100541.56;5565455;31;34334;-56
2023/12/07 07:55:32;;;;;;;11.02;4.70;;;;;;;4.26;100.00;100552.13;5549261;32;33122;-55
2023/12/07 07:58:34;;;;;;;7.97;5.00;;;;;;;4.18;100.00;100553.31;5560390;32;34067;-55
2023/12/07 08:01:37;;;;;;;6.20;4.82;;;;;;;4.27;97.64;100558.25;5567290;32;33678;-56
2023/12/07 08:04:40;;;;;;;5.82;4.30;;;;;;;4.17;100.00;100562.31;5566443;32;33838;-55
2023/12/07 08:07:43;;;;;;;6.90;4.57;;;;;;;4.30;95.94;100565.75;5567378;32;33748;-55
2023/12/07 08:10:46;;;;;;;121.97;12.07;;;;;;;4.13;97.16;100569.13;5564375;32;33634;-55
2023/12/07 08:13:58;;;;;;;8.10;5.15;;;;;;;4.13;100.00;100561.16;5562176;32;34177;-56
2023/12/07 08:17:00;;;;;;;11.60;5.03;;;;;;;4.19;96.34;100567.38;5563342;32;33593;-55
2023/12/07 08:20:03;;;;;;;25.90;6.95;;;;;;;4.13;100.00;100563.00;5562838;32;33731;-55
2023/12/07 08:23:05;;;;;;;9.25;5.45;;;;;;;4.15;100.00;100564.41;5566294;32;33101;-55
2023/12/07 08:26:07;;;;;;;8.93;6.28;;;;;;;4.12;98.75;100567.50;5565904;32;33777;-56
2023/12/07 08:29:10;;;;;;;8.93;5.53;;;;;;;4.10;100.00;100566.91;5563452;32;33172;-55
2023/12/07 08:32:14;;;;;;;7.45;5.37;;;;;;;4.31;100.00;100564.72;5564030;32;33532;-55
2023/12/07 08:35:17;;;;;;;25.15;6.35;;;;;;;4.36;95.68;100555.00;5564538;32;33160;-55
2023/12/07 08:38:20;;;;;;;7.87;5.35;;;;;;;4.31;97.78;100559.41;5562930;32;34316;-56
2023/12/07 08:41:23;;;;;;;6.03;4.55;;;;;;;4.40;93.30;100564.12;5563457;32;33560;-56
2023/12/07 08:44:25;;;;;;;7.93;5.15;;;;;;;4.64;100.00;100566.72;5562467;32;33712;-55
2023/12/07 08:47:30;;;;;;;6.95;4.80;;;;;;;4.55;93.02;100563.63;5564108;32;33137;-55
2023/12/07 08:50:32;;;;;;;6.95;4.87;;;;;;;4.54;91.06;100569.97;5561966;32;34312;-56
2023/12/07 08:53:35;;;;;;;6.97;5.20;;;;;;;4.43;100.00;100563.63;5561733;32;33624;-55
2023/12/07 08:56:37;;;;;;;7.20;5.45;;;;;;;4.50;100.00;100573.31;5563070;32;33737;-55
2023/12/07 08:59:40;;;;;;;7.12;4.82;;;;;;;4.58;100.00;100571.12;5564643;32;33629;-55
2023/12/07 09:02:43;;;;;;;5.85;4.62;;;;;;;4.65;93.55;100569.13;5557008;32;33563;-56
2023/12/07 09:05:49;;;;;;;;;;;;;;;4.65;96.25;100571.78;5563046;32;33970;-55
2023/12/07 09:08:52;;;;;;;6.28;5.03;;;;;;;4.64;100.00;100575.47;5563404;32;33998;-55
2023/12/07 09:11:54;;;;;;;5.70;4.50;;;;;;;5.11;100.00;100572.63;5562422;32;32180;-55
2023/12/07 09:14:56;;;;;;;6.47;4.57;;;;;;;4.83;96.72;100575.28;5558864;32;34467;-55
2023/12/07 09:18:00;;;;;;;6.35;4.95;;;;;;;4.97;100.00;100581.94;5561286;32;33840;-56
2023/12/07 09:21:03;;;;;;;6.93;5.47;;;;;;;4.84;96.74;100577.72;5562264;32;34192;-55
2023/12/07 09:24:06;;;;;;;7.05;5.30;;;;;;;5.08;100.00;100572.31;5561434;32;34256;-55
2023/12/07 09:27:10;;;;;;;8.00;5.05;;;;;;;5.21;100.00;100576.53;5559809;32;34231;-56
2023/12/07 09:30:14;;;;;;;7.37;5.12;;;;;;;5.11;100.00;100571.81;5560445;32;33631;-56
2023/12/07 09:33:16;;;;;;;7.37;5.30;;;;;;;5.18;100.00;100573.28;5563436;32;33970;-55
2023/12/07 09:36:21;;;;;;;8.07;5.35;;;;;;;5.13;100.00;100567.06;5563172;32;34244;-55
2023/12/07 09:39:23;;;;;;;9.85;6.90;;;;;;;5.15;94.11;100583.59;5559771;32;33836;-55
2023/12/07 09:42:27;;;;;;;11.00;6.40;;;;;;;5.03;91.39;100570.34;5547829;32;33533;-55
2023/12/07 09:45:38;;;;;;;8.52;7.22;;;;;;;5.03;90.77;100570.34;5560191;32;33692;-56
2023/12/07 09:48:43;;;;;;;10.93;7.28;;;;;;;4.90;97.09;100566.16;5561146;32;34460;-55
2023/12/07 09:51:46;;;;;;;10.18;7.07;;;;;;;4.86;100.00;100569.50;5563694;32;31898;-56
2023/12/07 09:54:51;;;;;;;11.63;7.87;;;;;;;4.88;97.38;100568.22;5565393;32;33753;-55
2023/12/07 09:57:56;;;;;;;8.55;6.28;;;;;;;4.82;93.10;100571.81;5564940;32;33674;-56
2023/12/07 10:00:59;;;;;;;13.88;8.50;;;;;;;4.87;92.41;100563.16;5565853;32;33107;-55
2023/12/07 10:04:20;;;;;;;10.70;7.47;;;;;;;4.72;93.47;100566.34;5566625;32;33729;-55
2023/12/07 10:07:33;;;;;;;7.82;6.00;;;;;;;4.92;100.00;100565.91;5557248;32;33719;-55
2023/12/07 10:10:37;;;;;;;8.35;6.55;;;;;;;4.85;100.00;100565.25;5564521;32;33580;-55
2023/12/07 10:13:40;;;;;;;5.20;4.50;;;;;;;4.87;98.15;100571.12;5562446;32;34278;-55
2023/12/07 10:16:57;;;;;;;5.95;4.65;;;;;;;5.38;100.00;100561.38;5567031;32;33585;-55
2023/12/07 10:20:11;;;;;;;6.28;4.55;;;;;;;5.31;94.65;100560.75;5564570;32;33989;-55
2023/12/07 10:23:17;;;;;;;6.12;5.07;;;;;;;5.02;96.48;100560.78;5563027;32;34345;-56
2023/12/07 10:26:19;;;;;;;6.85;5.22;;;;;;;5.75;100.00;100568.87;5560664;31;33620;-55
2023/12/07 10:29:23;;;;;;;6.93;5.20;;;;;;;5.94;100.00;100572.13;5558384;32;33915;-55
2023/12/07 10:32:37;;;;;;;6.60;5.30;;;;;;;5.62;99.11;100564.69;5556845;32;33709;-57
2023/12/07 10:35:42;;;;;;;7.43;5.47;;;;;;;5.49;92.77;100567.66;5557508;32;33544;-55
2023/12/07 10:38:45;;;;;;;7.68;4.97;;;;;;;5.29;93.31;100566.28;5564654;32;32697;-55
2023/12/07 10:41:52;;;;;;;6.60;5.25;;;;;;;5.62;97.70;100568.16;5568716;32;33839;-55
2023/12/07 10:44:57;;;;;;;13.73;10.50;;;;;;;5.13;95.33;100567.06;5567318;32;34796;-55
2023/12/07 10:48:08;;;;;;;12.30;10.07;;;;;;;5.18;92.46;100565.31;5563498;32;34378;-55
2023/12/07 10:51:19;;;;;;;7.07;5.03;;;;;;;5.26;91.53;100564.09;5565259;32;33660;-55
2023/12/07 10:54:25;;;;;;;10.45;8.23;;;;;;;5.05;90.83;100570.91;5564151;32;33691;-55
2023/12/07 10:57:29;;;;;;;10.48;8.23;;;;;;;5.09;93.76;100573.91;5560652;32;33826;-55
2023/12/07 11:00:32;;;;;;;11.02;8.60;;;;;;;5.05;92.27;100572.78;5560787;32;34083;-55
2023/12/07 11:03:52;;;;;;;12.02;8.50;;;;;;;5.05;93.42;100570.91;5558604;32;34400;-55
2023/12/07 11:06:59;;;;;;;16.33;8.75;;;;;;;5.00;97.10;100575.34;5560520;31;33560;-56
2023/12/07 11:10:13;;;;;;;11.75;8.20;;;;;;;5.08;95.99;100575.75;5564134;32;33905;-56
2023/12/07 11:13:30;;;;;;;9.57;8.07;;;;;;;5.08;94.98;100583.72;5558882;32;33259;-55
2023/12/07 11:16:36;;;;;;;9.98;8.25;;;;;;;5.04;95.08;100590.56;5563726;32;33697;-55
2023/12/07 11:19:39;;;;;;;13.57;9.30;;;;;;;5.10;100.00;100588.78;5561284;32;33753;-55
2023/12/07 11:22:43;;;;;;;11.25;8.68;;;;;;;5.13;100.00;100586.50;5561794;32;33557;-55
2023/12/07 11:25:47;;;;;;;33.10;10.23;;;;;;;5.42;100.00;100586.44;5559515;32;33137;-55
2023/12/07 11:28:50;;;;;;;7.60;6.12;;;;;;;5.57;100.00;100591.22;5561551;32;33694;-55
2023/12/07 11:31:56;;;;;;;7.87;6.35;;;;;;;5.56;100.00;100589.59;5563566;32;33707;-55
2023/12/07 11:35:05;;;;;;;7.25;6.28;;;;;;;5.13;95.17;100594.47;5558693;32;33862;-56
2023/12/07 11:38:11;;;;;;;10.32;6.75;;;;;;;5.08;93.60;100586.37;5563707;32;33539;-55
2023/12/07 11:41:14;;;;;;;7.82;6.22;;;;;;;5.75;100.00;100579.50;5565221;32;33829;-55
2023/12/07 11:44:17;;;;;;;8.40;7.20;;;;;;;5.36;99.48;100579.41;5562359;32;33699;-55
2023/12/07 11:47:20;;;;;;;8.50;6.78;;;;;;;5.73;100.00;100581.59;5563356;32;33768;-55
2023/12/07 11:50:23;;;;;;;10.20;7.43;;;;;;;5.53;92.59;100584.75;5559515;32;33347;-55
2023/12/07 11:53:31;;;;;;;9.27;7.80;;;;;;;5.47;98.21;100578.56;5566235;32;33774;-55
2023/12/07 11:56:33;;;;;;;10.63;8.25;;;;;;;5.44;96.41;100589.66;5562609;32;33678;-55
2023/12/07 11:59:35;;;;;;;8.82;7.50;;;;;;;5.80;100.00;100587.59;5564462;32;34022;-56
2023/12/07 12:02:38;;;;;;;10.85;7.68;;;;;;;5.52;95.62;100586.59;5567230;32;33030;-55
2023/12/07 12:05:43;;;;;;;10.25;8.95;;;;;;;5.39;89.61;100592.22;5566456;32;32834;-55
2023/12/07 12:08:46;;;;;;;10.80;8.45;;;;;;;5.63;100.00;100591.06;5557642;32;33944;-55
2023/12/07 12:11:49;;;;;;;12.85;9.63;;;;;;;5.40;93.02;100597.31;5557746;32;34263;-56
2023/12/07 12:14:52;;;;;;;11.40;8.82;;;;;;;5.36;100.00;100596.19;5558500;32;33787;-56
2023/12/07 12:17:58;;;;;;;12.90;8.93;;;;;;;5.99;100.00;100596.91;5563621;32;33601;-56
2023/12/07 12:21:00;;;;;;;11.02;9.18;;;;;;;6.01;100.00;100602.00;5567917;32;33642;-55
2023/12/07 12:24:03;;;;;;;10.63;9.07;;;;;;;5.96;100.00;100594.78;5564908;32;33741;-56
2023/12/07 12:27:06;;;;;;;11.07;9.38;;;;;;;6.04;100.00;100606.84;5559888;32;34145;-55
2023/12/07 12:30:10;;;;;;;11.12;9.13;;;;;;;5.62;91.11;100609.91;5568003;32;33719;-55
2023/12/07 12:33:13;;;;;;;10.63;9.32;;;;;;;5.42;90.91;100603.19;5566210;32;34427;-55
2023/12/07 12:36:21;;;;;;;12.30;9.48;;;;;;;5.30;93.49;100601.66;5549151;32;33584;-56
2023/12/07 12:39:30;;;;;;;11.40;9.85;;;;;;;5.60;100.00;100612.81;5543744;32;33837;-56
2023/12/07 12:42:38;;;;;;;12.20;9.40;;;;;;;5.18;100.00;100615.81;5558745;32;34404;-56
2023/12/07 12:45:41;;;;;;;13.15;10.13;;;;;;;5.23;94.58;100615.09;5565044;32;33726;-56
2023/12/07 12:48:54;;;;;;;11.70;10.25;;;;;;;5.14;97.57;100617.34;5564424;32;33203;-56
2023/12/07 12:51:57;;;;;;;12.15;10.00;;;;;;;5.15;100.00;100621.59;5565306;32;34219;-57
2023/12/07 12:54:59;;;;;;;12.43;10.52;;;;;;;5.44;100.00;100624.22;5561939;32;33654;-57
2023/12/07 12:58:04;;;;;;;13.75;10.40;;;;;;;5.18;94.13;100620.31;5561821;32;33851;-56
2023/12/07 13:01:07;;;;;;;13.43;10.90;;;;;;;5.56;100.00;100627.63;5560347;32;33584;-56
2023/12/07 13:04:10;;;;;;;11.93;10.20;;;;;;;5.60;100.00;100620.78;5557973;32;34323;-56
2023/12/07 13:07:13;;;;;;;14.15;10.20;;;;;;;5.50;96.68;100627.81;5547834;32;33501;-56
2023/12/07 13:10:16;;;;;;;13.25;10.32;;;;;;;5.52;100.00;100631.81;5561476;32;34248;-56
2023/12/07 13:13:19;;;;;;;13.30;10.65;;;;;;;5.46;91.68;100627.44;5564868;32;33137;-56
2023/12/07 13:16:21;;;;;;;13.35;10.25;;;;;;;5.47;100.00;100629.06;5567237;32;33584;-57
2023/12/07 13:19:24;;;;;;;13.50;10.30;;;;;;;5.61;100.00;100635.69;5567053;32;33790;-56
2023/12/07 13:22:26;;;;;;;11.77;10.32;;;;;;;5.48;100.00;100640.50;5566956;32;34314;-57
2023/12/07 13:25:29;;;;;;;12.80;10.25;;;;;;;5.91;100.00;100634.56;5568961;32;33705;-56
2023/12/07 13:28:31;;;;;;;11.77;9.93;;;;;;;5.56;91.74;100632.12;5569501;32;34378;-57
2023/12/07 13:31:34;;;;;;;12.05;9.95;;;;;;;5.24;90.74;100639.84;5569808;32;34395;-57
2023/12/07 13:34:37;;;;;;;14.07;10.70;;;;;;;5.09;96.77;100638.47;5566728;32;33683;-56
2023/12/07 13:37:40;;;;;;;13.48;10.60;;;;;;;5.29;100.00;100639.91;5569143;32;34461;-56
2023/12/07 13:40:43;;;;;;;11.77;10.38;;;;;;;5.47;100.00;100645.03;5567749;32;34321;-56
2023/12/07 13:43:48;;;;;;;13.55;11.27;;;;;;;5.67;100.00;100641.91;5569398;32;33750;-56
2023/12/07 13:46:53;;;;;;;14.70;11.30;;;;;;;5.49;92.88;100647.44;5569865;32;33917;-56
2023/12/07 13:49:58;;;;;;;14.43;10.50;;;;;;;5.20;93.75;100647.47;5566467;32;33754;-57
2023/12/07 13:53:01;;;;;;;13.80;10.45;;;;;;;5.18;100.00;100652.22;5564226;32;33142;-57
2023/12/07 13:56:04;;;;;;;14.40;11.50;;;;;;;5.51;100.00;100656.78;5570166;32;33668;-57
2023/12/07 13:59:10;;;;;;;15.15;12.13;;;;;;;5.65;100.00;100655.44;5569882;32;33901;-56
2023/12/07 14:02:13;;;;;;;14.10;11.40;;;;;;;5.79;100.00;100663.91;5569291;32;33612;-56
2023/12/07 14:05:16;;;;;;;14.35;11.48;;;;;;;5.55;100.00;100657.91;5569423;32;34035;-56
2023/12/07 14:08:21;;;;;;;14.02;10.95;;;;;;;5.34;100.00;100664.75;5568287;32;33623;-56
2023/12/07 14:11:23;;;;;;;15.45;11.98;;;;;;;5.30;90.72;100665.47;5568853;32;33690;-56
2023/12/07 14:14:26;;;;;;;14.80;12.75;;;;;;;5.75;100.00;100670.75;5565546;32;33949;-57
2023/12/07 14:17:37;;;;;;;15.15;11.98;;;;;;;5.69;100.00;100674.37;5567964;32;34410;-56
2023/12/07 14:20:44;;;;;;;15.93;12.20;;;;;;;5.54;100.00;100679.44;5564457;32;31890;-56
2023/12/07 14:24:08;;;;;;;14.70;12.35;;;;;;;5.45;100.00;100676.34;5568209;32;34319;-56
2023/12/07 14:27:10;;;;;;;15.70;12.82;;;;;;;5.48;100.00;100686.53;5562080;32;33681;-56
2023/12/07 14:30:13;;;;;;;16.10;12.65;;;;;;;5.63;100.00;100693.97;5557543;32;33718;-56
2023/12/07 14:33:15;;;;;;;17.37;12.93;;;;;;;5.37;98.62;100695.38;5568401;32;34383;-56
2023/12/07 14:36:18;;;;;;;18.12;13.32;;;;;;;5.29;95.46;100698.37;5569354;32;34418;-56
2023/12/07 14:39:21;;;;;;;16.87;13.15;;;;;;;5.07;93.74;100712.34;5569323;32;34303;-56
2023/12/07 14:42:23;;;;;;;15.77;12.40;;;;;;;5.33;100.00;100712.81;5569652;32;34364;-56
2023/12/07 14:45:26;;;;;;;16.42;12.98;;;;;;;5.38;94.61;100716.38;5568773;32;33600;-58
2023/12/07 14:48:28;;;;;;;17.17;13.55;;;;;;;5.36;97.01;100712.34;5569759;32;33558;-56
2023/12/07 14:51:31;;;;;;;19.75;14.60;;;;;;;5.19;98.74;100714.94;5569716;32;34110;-57
2023/12/07 14:54:36;;;;;;;17.45;14.55;;;;;;;5.86;100.00;100724.94;5568947;32;33602;-57
2023/12/07 14:57:38;;;;;;;15.80;14.02;;;;;;;5.58;100.00;100723.94;5569144;32;33706;-56
2023/12/07 15:00:41;;;;;;;18.37;13.55;;;;;;;5.41;97.66;100720.44;5569189;32;34388;-56
2023/12/07 15:03:46;;;;;;;19.62;14.30;;;;;;;5.86;100.00;100728.44;5569556;32;33646;-56
2023/12/07 15:06:48;;;;;;;18.80;15.00;;;;;;;5.71;100.00;100732.66;5569482;32;34328;-56
2023/12/07 15:09:51;;;;;;;18.67;14.20;;;;;;;5.93;100.00;100727.47;5569358;32;33676;-56
2023/12/07 15:12:54;;;;;;;18.35;14.93;;;;;;;5.53;100.00;100737.16;5568223;32;33593;-56
2023/12/07 15:15:56;;;;;;;17.95;14.50;;;;;;;5.69;100.00;100740.06;5568840;32;33748;-56
2023/12/07 15:18:59;;;;;;;17.25;14.27;;;;;;;5.37;93.50;100745.87;5569455;32;33750;-56
2023/12/07 15:22:02;;;;;;;18.87;14.82;;;;;;;5.50;100.00;100747.47;5569590;32;33826;-56
2023/12/07 15:25:05;;;;;;;17.23;13.40;;;;;;;5.25;97.40;100753.88;5569191;32;33654;-57
2023/12/07 15:28:10;;;;;;;18.87;15.93;;;;;;;5.15;100.00;100753.69;5568914;32;33994;-56
2023/12/07 15:31:13;;;;;;;19.80;15.80;;;;;;;5.28;100.00;100756.06;5569207;32;33761;-56
2023/12/07 15:34:15;;;;;;;50.75;16.73;;;;;;;5.18;100.00;100758.53;5569270;32;33860;-57
2023/12/07 15:37:34;;;;;;;18.98;14.27;;;;;;;5.26;100.00;100771.44;5569241;32;33593;-57
2023/12/07 15:40:36;;;;;;;19.27;15.18;;;;;;;5.35;100.00;100766.56;5569305;32;33655;-56
2023/12/07 15:43:39;;;;;;;19.30;15.25;;;;;;;5.29;100.00;100770.16;5568800;32;33487;-57
2023/12/07 15:46:41;;;;;;;22.73;18.52;;;;;;;5.52;100.00;100766.63;5567998;32;34342;-56
2023/12/07 15:49:43;;;;;;;21.48;16.42;;;;;;;5.26;100.00;100768.78;5557772;32;33704;-57
2023/12/07 15:52:46;;;;;;;21.15;16.37;;;;;;;5.13;100.00;100779.66;5549261;32;33214;-57
2023/12/07 15:55:48;;;;;;;25.33;18.15;;;;;;;5.09;100.00;100773.22;5549396;32;34440;-56
2023/12/07 15:58:51;;;;;;;21.42;17.05;;;;;;;5.17;100.00;100783.50;5549128;32;33842;-57
2023/12/07 16:01:53;;;;;;;21.52;17.75;;;;;;;5.04;100.00;100781.09;5548844;32;33449;-57
2023/12/07 16:04:56;;;;;;;21.95;17.02;;;;;;;4.91;99.09;100792.75;5549563;32;33640;-56
2023/12/07 16:07:58;;;;;;;19.85;16.95;;;;;;;5.18;91.70;100793.06;5549286;32;34365;-56
2023/12/07 16:11:00;;;;;;;21.37;17.25;;;;;;;5.00;93.06;100787.88;5549531;32;33679;-56
2023/12/07 16:14:03;;;;;;;20.80;16.23;;;;;;;5.05;93.67;100795.97;5549616;32;34443;-56
2023/12/07 16:17:07;;;;;;;22.27;16.00;;;;;;;5.07;100.00;100792.06;5549377;32;33745;-56
2023/12/07 16:20:14;;;;;;;22.25;18.15;;;;;;;5.06;95.87;100803.72;5548420;32;33785;-56
2023/12/07 16:23:17;;;;;;;26.58;17.50;;;;;;;5.01;93.80;100805.47;5549583;32;34869;-57
2023/12/07 16:26:19;;;;;;;22.62;17.45;;;;;;;5.07;100.00;100807.19;5549223;32;34476;-56
2023/12/07 16:29:22;;;;;;;21.70;17.73;;;;;;;5.38;100.00;100806.78;5549292;32;33604;-57
2023/12/07 16:32:25;;;;;;;22.85;17.65;;;;;;;5.41;100.00;100808.16;5549274;32;34356;-56
2023/12/07 16:35:28;;;;;;;21.83;17.50;;;;;;;5.11;100.00;100811.81;5549358;32;33618;-57
2023/12/07 16:38:30;;;;;;;24.37;18.40;;;;;;;5.03;100.00;100814.78;5549282;32;33660;-57
2023/12/07 16:41:33;;;;;;;24.27;17.75;;;;;;;5.11;100.00;100805.69;5549295;32;33795;-56
2023/12/07 16:44:49;;;;;;;23.05;18.52;;;;;;;5.03;100.00;100806.81;5549017;32;34232;-56
2023/12/07 16:47:53;;;;;;;24.33;18.30;;;;;;;4.94;95.63;100810.91;5548737;32;33809;-57
2023/12/07 16:50:56;;;;;;;22.98;17.77;;;;;;;4.95;92.77;100817.81;5549006;32;33755;-56
